createdAt,value
2022-11-27T00:01:00.042Z,0.84
2022-11-27T00:02:01.633Z,0.84
2022-11-27T00:03:03.454Z,0.87
2022-11-27T00:04:09.276Z,0.88
2022-11-27T00:05:10.903Z,0.85
2022-11-27T00:06:15.790Z,0.89
2022-11-27T00:07:17.462Z,0.90
2022-11-27T00:08:19.080Z,0.92
2022-11-27T00:09:20.864Z,0.86
2022-11-27T00:10:22.809Z,0.92
2022-11-27T00:11:26.132Z,0.94
2022-11-27T00:12:27.784Z,0.93
2022-11-27T00:13:29.677Z,0.97
2022-11-27T00:14:31.366Z,0.97
2022-11-27T00:15:33.017Z,0.97
2022-11-27T00:16:34.636Z,0.94
2022-11-27T00:17:36.162Z,0.91
2022-11-27T00:18:38.715Z,0.89
2022-11-27T00:19:40.722Z,0.88
2022-11-27T00:20:42.568Z,0.90
2022-11-27T00:21:44.323Z,0.88
2022-11-27T00:22:45.960Z,0.88
2022-11-27T00:23:47.607Z,0.87
2022-11-27T00:24:49.177Z,0.84
2022-11-27T00:25:53.736Z,0.86
2022-11-27T00:26:56.031Z,0.84
2022-11-27T00:27:57.652Z,0.79
2022-11-27T00:28:59.273Z,0.76
2022-11-27T00:30:00.840Z,0.74
2022-11-27T00:31:08.869Z,0.69
2022-11-27T00:32:10.461Z,0.71
2022-11-27T00:33:12.552Z,0.72
2022-11-27T00:34:14.398Z,0.74
2022-11-27T00:35:16.237Z,0.78
2022-11-27T00:36:17.947Z,0.77
2022-11-27T00:37:19.746Z,0.79
2022-11-27T00:38:21.955Z,0.82
2022-11-27T00:39:23.567Z,0.87
2022-11-27T00:40:25.190Z,0.86
2022-11-27T00:41:29.472Z,0.82
2022-11-27T00:42:31.039Z,0.88
2022-11-27T00:43:43.201Z,0.86
2022-11-27T00:44:45.955Z,0.90
2022-11-27T00:45:50.419Z,0.83
2022-11-27T00:46:52.095Z,0.87
2022-11-27T00:47:53.886Z,0.89
2022-11-27T00:48:56.975Z,0.91
2022-11-27T00:49:58.816Z,0.95
2022-11-27T00:51:05.881Z,0.95
2022-11-27T00:52:07.859Z,0.98
2022-11-27T00:53:09.568Z,0.98
2022-11-27T00:54:11.201Z,0.90
2022-11-27T00:55:12.871Z,0.98
2022-11-27T00:56:20.291Z,0.98
2022-11-27T00:57:21.855Z,0.94
2022-11-27T00:58:24.259Z,0.98
2022-11-27T00:59:25.951Z,0.99
2022-11-27T01:00:27.574Z,0.96
2022-11-27T01:01:32.277Z,0.98
2022-11-27T01:02:34.124Z,0.92
2022-11-27T01:03:35.937Z,0.91
2022-11-27T01:04:37.809Z,0.90
2022-11-27T01:05:39.659Z,0.92
2022-11-27T01:06:41.974Z,0.94
2022-11-27T01:07:43.594Z,0.97
2022-11-27T01:08:45.618Z,0.98
2022-11-27T01:09:47.201Z,1.00
2022-11-27T01:10:55.077Z,0.96
2022-11-27T01:11:57.160Z,1.00
2022-11-27T01:12:59.016Z,1.01
2022-11-27T01:14:04.033Z,1.03
2022-11-27T01:15:06.037Z,1.00
2022-11-27T01:16:13.418Z,0.99
2022-11-27T01:17:15.062Z,0.90
2022-11-27T01:18:16.714Z,0.76
2022-11-27T01:19:19.183Z,0.69
2022-11-27T01:20:20.728Z,0.64
2022-11-27T01:21:22.674Z,0.58
2022-11-27T01:22:24.271Z,0.51
2022-11-27T01:23:26.469Z,0.45
2022-11-27T01:24:28.056Z,0.49
2022-11-27T01:25:29.592Z,0.54
2022-11-27T01:26:31.807Z,0.54
2022-11-27T01:27:33.361Z,0.55
2022-11-27T01:28:36.315Z,0.49
2022-11-27T01:29:37.888Z,0.59
2022-11-27T01:30:39.803Z,0.62
2022-11-27T01:31:41.697Z,0.54
2022-11-27T01:32:43.371Z,0.61
2022-11-27T01:33:46.332Z,0.58
2022-11-27T01:34:47.870Z,0.63
2022-11-27T01:35:57.637Z,0.66
2022-11-27T01:36:59.268Z,0.64
2022-11-27T01:38:00.946Z,0.62
2022-11-27T01:39:03.470Z,0.63
2022-11-27T01:40:05.864Z,0.65
2022-11-27T01:41:15.018Z,0.62
2022-11-27T01:42:16.754Z,0.62
2022-11-27T01:43:18.464Z,0.63
2022-11-27T01:44:25.876Z,0.66
2022-11-27T01:45:27.506Z,0.69
2022-11-27T01:46:39.323Z,0.74
2022-11-27T01:47:52.467Z,0.79
2022-11-27T01:48:59.614Z,0.80
2022-11-27T01:50:09.614Z,0.85
2022-11-27T01:51:11.612Z,0.84
2022-11-27T01:52:19.801Z,0.89
2022-11-27T01:53:21.467Z,0.91
2022-11-27T01:54:29.377Z,0.81
2022-11-27T01:55:36.112Z,0.91
2022-11-27T01:56:39.990Z,0.97
2022-11-27T01:57:45.699Z,1.01
2022-11-27T01:58:47.781Z,1.03
2022-11-27T01:59:52.338Z,1.04
2022-11-27T02:00:54.412Z,1.04
2022-11-27T02:01:56.296Z,1.05
2022-11-27T02:02:58.334Z,1.07
2022-11-27T02:04:01.795Z,1.04
2022-11-27T02:05:03.635Z,0.98
2022-11-27T02:06:05.490Z,0.96
2022-11-27T02:07:07.175Z,0.97
2022-11-27T02:08:12.835Z,0.94
2022-11-27T02:09:14.561Z,0.94
2022-11-27T02:10:17.157Z,0.95
2022-11-27T02:11:33.628Z,0.97
2022-11-27T02:12:50.891Z,1.00
2022-11-27T02:14:08.771Z,1.01
2022-11-27T02:15:25.456Z,1.02
2022-11-27T02:16:45.784Z,1.04
2022-11-27T02:18:01.502Z,1.05
2022-11-27T02:19:40.601Z,1.08
2022-11-27T02:21:04.985Z,1.12
2022-11-27T02:22:29.057Z,1.16
2022-11-27T02:23:55.011Z,1.19
2022-11-27T02:25:03.100Z,1.26
2022-11-27T02:26:50.391Z,1.30
2022-11-27T02:28:00.954Z,1.31
2022-11-27T02:29:08.614Z,1.35
2022-11-27T02:30:10.932Z,1.36
2022-11-27T02:31:22.361Z,1.38
2022-11-27T02:32:31.220Z,1.41
2022-11-27T02:33:34.852Z,1.45
2022-11-27T02:34:45.591Z,1.50
2022-11-27T02:35:56.658Z,1.51
2022-11-27T02:37:13.533Z,1.51
2022-11-27T02:38:28.692Z,1.48
2022-11-27T02:39:41.143Z,1.56
2022-11-27T02:40:56.257Z,1.58
2022-11-27T02:42:06.137Z,1.59
2022-11-27T02:43:19.249Z,1.61
2022-11-27T02:44:22.853Z,1.59
2022-11-27T02:45:31.802Z,1.65
2022-11-27T02:46:34.582Z,1.66
2022-11-27T02:47:39.976Z,1.66
2022-11-27T02:48:50.555Z,1.66
2022-11-27T02:49:57.024Z,1.67
2022-11-27T02:50:59.025Z,1.70
2022-11-27T02:52:02.515Z,1.65
2022-11-27T02:53:11.023Z,1.71
2022-11-27T02:54:19.470Z,1.71
2022-11-27T02:55:25.733Z,1.71
2022-11-27T02:56:29.791Z,1.73
2022-11-27T02:57:33.435Z,1.74
2022-11-27T02:58:37.344Z,1.76
2022-11-27T02:59:41.064Z,1.78
2022-11-27T03:00:44.886Z,1.79
2022-11-27T03:01:53.428Z,1.81
2022-11-27T03:03:00.400Z,1.79
2022-11-27T03:04:07.514Z,1.85
2022-11-27T03:05:15.345Z,1.87
2022-11-27T03:06:31.363Z,1.90
2022-11-27T03:08:01.460Z,1.94
2022-11-27T03:09:06.810Z,1.95
2022-11-27T03:10:20.626Z,1.99
2022-11-27T03:11:23.076Z,2.01
2022-11-27T03:12:24.786Z,2.01
2022-11-27T03:13:27.739Z,2.03
2022-11-27T03:14:29.539Z,2.11
2022-11-27T03:16:05.648Z,2.10
2022-11-27T03:17:25.801Z,2.14
2022-11-27T03:18:39.515Z,2.17
2022-11-27T03:20:03.433Z,2.21
2022-11-27T03:21:29.873Z,2.24
2022-11-27T03:22:31.857Z,2.25
2022-11-27T03:23:33.385Z,2.26
2022-11-27T03:24:36.020Z,2.30
2022-11-27T03:25:37.611Z,2.35
2022-11-27T03:26:40.811Z,2.37
2022-11-27T03:28:10.512Z,2.39
2022-11-27T03:29:21.683Z,2.29
2022-11-27T03:30:23.471Z,2.37
2022-11-27T03:31:26.354Z,2.38
2022-11-27T03:32:30.210Z,2.33
2022-11-27T03:33:31.947Z,2.32
2022-11-27T03:34:34.104Z,2.36
2022-11-27T03:35:35.789Z,2.29
2022-11-27T03:36:37.475Z,2.31
2022-11-27T03:37:39.346Z,2.35
2022-11-27T03:38:42.195Z,2.31
2022-11-27T03:39:44.270Z,2.38
2022-11-27T03:41:01.752Z,2.36
2022-11-27T03:42:11.530Z,2.35
2022-11-27T03:43:24.094Z,2.28
2022-11-27T03:44:43.930Z,2.33
2022-11-27T03:46:05.590Z,2.33
2022-11-27T03:47:19.502Z,2.33
2022-11-27T03:48:30.348Z,2.34
2022-11-27T03:49:47.286Z,2.34
2022-11-27T03:51:04.071Z,2.27
2022-11-27T03:52:44.508Z,2.35
2022-11-27T03:54:02.081Z,2.32
2022-11-27T03:55:17.240Z,2.29
2022-11-27T03:56:27.101Z,2.29
2022-11-27T03:57:33.782Z,2.31
2022-11-27T03:58:44.859Z,2.28
2022-11-27T03:59:50.418Z,2.26
2022-11-27T04:00:53.139Z,2.21
2022-11-27T04:01:54.807Z,2.18
2022-11-27T04:02:56.383Z,2.12
2022-11-27T04:03:58.002Z,2.16
2022-11-27T04:04:59.626Z,2.11
2022-11-27T04:06:01.233Z,2.12
2022-11-27T04:07:02.875Z,2.12
2022-11-27T04:08:04.926Z,2.10
2022-11-27T04:09:06.997Z,2.05
2022-11-27T04:10:09.873Z,2.08
2022-11-27T04:11:11.424Z,2.09
2022-11-27T04:12:12.998Z,2.08
2022-11-27T04:13:15.490Z,2.10
2022-11-27T04:14:17.062Z,2.07
2022-11-27T04:15:18.907Z,2.06
2022-11-27T04:16:20.978Z,2.07
2022-11-27T04:17:22.786Z,2.09
2022-11-27T04:18:24.426Z,2.09
2022-11-27T04:19:26.033Z,2.05
2022-11-27T04:20:29.110Z,2.07
2022-11-27T04:21:30.731Z,2.03
2022-11-27T04:22:32.789Z,1.98
2022-11-27T04:23:34.478Z,1.96
2022-11-27T04:24:36.154Z,1.93
2022-11-27T04:25:37.711Z,1.88
2022-11-27T04:26:39.364Z,1.87
2022-11-27T04:27:41.058Z,1.83
2022-11-27T04:28:42.694Z,1.84
2022-11-27T04:29:44.251Z,1.85
2022-11-27T04:30:50.407Z,1.84
2022-11-27T04:31:51.990Z,1.84
2022-11-27T04:32:53.665Z,1.87
2022-11-27T04:33:55.301Z,1.88
2022-11-27T04:34:56.891Z,1.90
2022-11-27T04:35:58.487Z,1.92
2022-11-27T04:37:00.082Z,1.92
2022-11-27T04:38:01.809Z,1.93
2022-11-27T04:39:03.573Z,1.96
2022-11-27T04:40:06.087Z,1.99
2022-11-27T04:41:07.857Z,2.00
2022-11-27T04:42:09.549Z,2.05
2022-11-27T04:43:11.275Z,2.08
2022-11-27T04:44:13.408Z,2.11
2022-11-27T04:45:14.981Z,2.12
2022-11-27T04:46:16.560Z,2.14
2022-11-27T04:47:18.248Z,2.17
2022-11-27T04:48:19.942Z,2.22
2022-11-27T04:49:21.465Z,2.23
2022-11-27T04:50:23.046Z,2.25
2022-11-27T04:51:24.602Z,2.23
2022-11-27T04:52:26.223Z,2.22
2022-11-27T04:53:27.950Z,2.21
2022-11-27T04:54:29.544Z,2.23
2022-11-27T04:55:31.150Z,2.26
2022-11-27T04:56:32.715Z,2.28
2022-11-27T04:57:34.259Z,2.30
2022-11-27T04:58:35.888Z,2.29
2022-11-27T04:59:38.216Z,2.26
2022-11-27T05:00:39.819Z,2.26
2022-11-27T05:01:41.491Z,2.24
2022-11-27T05:02:43.200Z,2.17
2022-11-27T05:03:47.339Z,2.14
2022-11-27T05:04:49.129Z,2.13
2022-11-27T05:05:57.575Z,2.12
2022-11-27T05:06:59.159Z,2.09
2022-11-27T05:08:00.732Z,2.08
2022-11-27T05:09:02.479Z,2.07
2022-11-27T05:10:05.483Z,2.07
2022-11-27T05:11:11.518Z,2.05
2022-11-27T05:12:13.354Z,2.02
2022-11-27T05:13:14.988Z,2.00
2022-11-27T05:14:20.786Z,1.95
2022-11-27T05:15:22.400Z,1.96
2022-11-27T05:16:24.150Z,1.97
2022-11-27T05:17:25.839Z,1.96
2022-11-27T05:18:27.631Z,1.94
2022-11-27T05:19:30.982Z,1.97
2022-11-27T05:20:32.628Z,1.97
2022-11-27T05:21:34.432Z,1.97
2022-11-27T05:22:36.134Z,1.99
2022-11-27T05:23:38.043Z,2.02
2022-11-27T05:24:39.956Z,2.05
2022-11-27T05:25:41.897Z,2.07
2022-11-27T05:26:44.018Z,2.07
2022-11-27T05:27:45.702Z,2.10
2022-11-27T05:28:47.515Z,2.12
2022-11-27T05:29:49.151Z,2.13
2022-11-27T05:30:51.273Z,2.18
2022-11-27T05:31:53.608Z,2.15
2022-11-27T05:32:55.376Z,2.10
2022-11-27T05:33:57.379Z,2.12
2022-11-27T05:34:58.891Z,2.12
2022-11-27T05:36:00.430Z,2.11
2022-11-27T05:37:02.019Z,2.09
2022-11-27T05:38:03.690Z,2.07
2022-11-27T05:39:06.977Z,2.06
2022-11-27T05:40:09.029Z,2.09
2022-11-27T05:41:10.735Z,2.05
2022-11-27T05:42:12.388Z,2.00
2022-11-27T05:43:14.107Z,2.02
2022-11-27T05:44:16.016Z,2.02
2022-11-27T05:45:17.709Z,1.96
2022-11-27T05:46:21.532Z,2.02
2022-11-27T05:47:23.470Z,1.93
2022-11-27T05:48:25.032Z,1.91
2022-11-27T05:49:26.797Z,1.91
2022-11-27T05:50:28.523Z,1.91
2022-11-27T05:51:30.165Z,1.87
2022-11-27T05:52:31.929Z,1.89
2022-11-27T05:53:34.260Z,1.90
2022-11-27T05:54:35.904Z,1.88
2022-11-27T05:55:37.543Z,1.86
2022-11-27T05:56:39.238Z,1.91
2022-11-27T05:57:41.029Z,1.89
2022-11-27T05:58:44.643Z,1.90
2022-11-27T05:59:46.318Z,1.91
2022-11-27T06:00:47.929Z,1.91
2022-11-27T06:01:49.721Z,1.91
2022-11-27T06:02:51.640Z,1.91
2022-11-27T06:03:53.456Z,1.93
2022-11-27T06:04:55.148Z,1.95
2022-11-27T06:05:57.290Z,1.96
2022-11-27T06:06:59.043Z,1.93
2022-11-27T06:08:00.813Z,1.88
2022-11-27T06:09:04.037Z,1.88
2022-11-27T06:10:07.992Z,1.89
2022-11-27T06:11:13.605Z,1.89
2022-11-27T06:12:15.431Z,1.91
2022-11-27T06:13:17.181Z,1.95
2022-11-27T06:14:18.827Z,1.88
2022-11-27T06:15:20.460Z,1.94
2022-11-27T06:16:24.260Z,1.95
2022-11-27T06:17:26.148Z,1.95
2022-11-27T06:18:27.958Z,1.96
2022-11-27T06:19:30.368Z,1.85
2022-11-27T06:20:32.197Z,1.92
2022-11-27T06:21:33.944Z,1.91
2022-11-27T06:22:35.571Z,1.90
2022-11-27T06:23:37.936Z,1.91
2022-11-27T06:24:39.831Z,1.88
2022-11-27T06:25:41.656Z,1.92
2022-11-27T06:26:43.326Z,1.92
2022-11-27T06:27:44.980Z,1.91
2022-11-27T06:28:47.536Z,1.90
2022-11-27T06:29:49.083Z,1.90
2022-11-27T06:30:51.004Z,1.93
2022-11-27T06:31:52.821Z,1.95
2022-11-27T06:32:54.443Z,1.95
2022-11-27T06:33:57.219Z,1.95
2022-11-27T06:34:59.152Z,1.89
2022-11-27T06:36:01.307Z,1.88
2022-11-27T06:37:02.950Z,1.95
2022-11-27T06:38:04.822Z,1.90
2022-11-27T06:39:08.155Z,1.96
2022-11-27T06:40:10.245Z,1.95
2022-11-27T06:41:15.061Z,1.93
2022-11-27T06:42:16.960Z,1.93
2022-11-27T06:43:18.664Z,1.94
2022-11-27T06:44:20.784Z,1.93
2022-11-27T06:45:22.520Z,1.96
2022-11-27T06:46:24.613Z,2.01
2022-11-27T06:47:26.213Z,2.05
2022-11-27T06:48:28.138Z,2.09
2022-11-27T06:49:30.054Z,2.13
2022-11-27T06:50:31.793Z,2.17
2022-11-27T06:51:33.415Z,2.21
2022-11-27T06:52:40.121Z,2.19
2022-11-27T06:53:43.499Z,2.20
2022-11-27T06:54:45.192Z,2.20
2022-11-27T06:55:46.813Z,2.23
2022-11-27T06:56:50.489Z,2.25
2022-11-27T06:57:52.096Z,2.24
2022-11-27T06:58:55.707Z,2.26
2022-11-27T06:59:57.241Z,2.29
2022-11-27T07:01:00.567Z,2.33
2022-11-27T07:02:02.235Z,2.32
2022-11-27T07:03:03.883Z,2.37
2022-11-27T07:04:05.566Z,2.39
2022-11-27T07:05:07.587Z,2.34
2022-11-27T07:06:11.914Z,2.41
2022-11-27T07:07:13.560Z,2.40
2022-11-27T07:08:15.254Z,2.45
2022-11-27T07:09:16.747Z,2.46
2022-11-27T07:10:18.340Z,2.45
2022-11-27T07:11:22.516Z,2.45
2022-11-27T07:12:24.163Z,2.44
2022-11-27T07:13:25.836Z,2.46
2022-11-27T07:14:27.413Z,2.46
2022-11-27T07:15:29.270Z,2.47
2022-11-27T07:16:34.259Z,2.48
2022-11-27T07:17:35.852Z,2.48
2022-11-27T07:18:43.005Z,2.49
2022-11-27T07:19:44.669Z,2.42
2022-11-27T07:20:56.618Z,2.30
2022-11-27T07:21:58.419Z,2.35
2022-11-27T07:23:00.122Z,2.35
2022-11-27T07:24:01.761Z,2.29
2022-11-27T07:25:03.708Z,2.31
2022-11-27T07:26:13.893Z,2.34
2022-11-27T07:27:15.472Z,2.38
2022-11-27T07:28:19.047Z,2.41
2022-11-27T07:29:20.894Z,2.41
2022-11-27T07:30:22.628Z,2.42
2022-11-27T07:31:29.335Z,2.44
2022-11-27T07:32:31.758Z,2.53
2022-11-27T07:33:33.483Z,2.58
2022-11-27T07:34:35.034Z,2.55
2022-11-27T07:35:36.665Z,2.51
2022-11-27T07:36:38.354Z,2.52
2022-11-27T07:37:39.925Z,2.54
2022-11-27T07:38:41.977Z,2.56
2022-11-27T07:40:01.367Z,2.51
2022-11-27T07:41:05.492Z,2.54
2022-11-27T07:42:36.374Z,2.63
2022-11-27T07:43:29.570Z,2.74
2022-11-27T07:44:31.275Z,2.76
2022-11-27T07:45:33.245Z,2.80
2022-11-27T07:46:35.022Z,2.85
2022-11-27T07:47:37.434Z,2.88
2022-11-27T07:48:39.255Z,2.94
2022-11-27T07:49:40.994Z,2.94
2022-11-27T07:50:42.737Z,2.93
2022-11-27T07:51:44.443Z,3.01
2022-11-27T07:52:46.179Z,3.00
2022-11-27T07:53:48.810Z,3.02
2022-11-27T07:54:50.398Z,3.07
2022-11-27T07:55:52.106Z,3.09
2022-11-27T07:56:53.681Z,3.18
2022-11-27T07:57:55.218Z,3.27
2022-11-27T07:58:58.154Z,3.34
2022-11-27T07:59:59.714Z,3.34
2022-11-27T08:01:01.480Z,3.34
2022-11-27T08:02:03.450Z,3.45
2022-11-27T08:03:05.049Z,3.45
2022-11-27T08:04:06.681Z,3.45
2022-11-27T08:05:12.709Z,3.44
2022-11-27T08:06:21.489Z,3.49
2022-11-27T08:07:30.081Z,3.49
2022-11-27T08:08:33.048Z,3.53
2022-11-27T08:09:34.721Z,3.58
2022-11-27T08:10:37.353Z,3.62
2022-11-27T08:11:39.572Z,3.48
2022-11-27T08:12:41.132Z,3.38
2022-11-27T08:13:42.792Z,3.40
2022-11-27T08:14:44.508Z,3.46
2022-11-27T08:15:46.279Z,3.49
2022-11-27T08:16:47.852Z,3.38
2022-11-27T08:17:49.555Z,3.30
2022-11-27T08:18:51.226Z,3.33
2022-11-27T08:19:52.903Z,3.45
2022-11-27T08:20:54.589Z,3.58
2022-11-27T08:21:57.520Z,3.70
2022-11-27T08:23:02.724Z,3.73
2022-11-27T08:24:05.245Z,3.77
2022-11-27T08:25:07.487Z,3.73
2022-11-27T08:26:10.918Z,3.84
2022-11-27T08:27:12.496Z,3.91
2022-11-27T08:28:14.049Z,3.98
2022-11-27T08:29:15.705Z,3.98
2022-11-27T08:30:17.809Z,4.03
2022-11-27T08:31:20.920Z,4.06
2022-11-27T08:32:25.590Z,4.20
2022-11-27T08:33:28.035Z,4.20
2022-11-27T08:34:29.684Z,4.27
2022-11-27T08:35:31.208Z,4.35
2022-11-27T08:36:33.167Z,4.44
2022-11-27T08:37:35.074Z,4.51
2022-11-27T08:38:36.670Z,4.45
2022-11-27T08:39:38.642Z,4.48
2022-11-27T08:40:40.348Z,4.34
2022-11-27T08:41:41.946Z,3.93
2022-11-27T08:42:43.540Z,3.82
2022-11-27T08:43:45.127Z,3.76
2022-11-27T08:44:46.765Z,3.82
2022-11-27T08:45:48.969Z,3.79
2022-11-27T08:46:50.648Z,3.96
2022-11-27T08:47:52.300Z,4.02
2022-11-27T08:48:53.935Z,3.81
2022-11-27T08:49:55.589Z,3.93
2022-11-27T08:50:57.165Z,3.95
2022-11-27T08:51:58.770Z,3.95
2022-11-27T08:53:00.381Z,4.06
2022-11-27T08:54:02.150Z,4.16
2022-11-27T08:55:04.838Z,4.20
2022-11-27T08:56:14.391Z,4.38
2022-11-27T08:57:16.729Z,4.45
2022-11-27T08:58:18.471Z,4.40
2022-11-27T08:59:20.151Z,4.47
2022-11-27T09:00:27.611Z,4.46
2022-11-27T09:01:32.661Z,4.50
2022-11-27T09:02:34.935Z,4.50
2022-11-27T09:03:36.991Z,4.45
2022-11-27T09:04:38.950Z,4.46
2022-11-27T09:05:44.792Z,4.47
2022-11-27T09:06:48.766Z,4.54
2022-11-27T09:07:51.389Z,4.56
2022-11-27T09:08:53.169Z,4.43
2022-11-27T09:09:54.706Z,4.47
2022-11-27T09:11:00.282Z,4.53
2022-11-27T09:12:01.855Z,4.66
2022-11-27T09:13:03.457Z,4.66
2022-11-27T09:14:06.168Z,4.73
2022-11-27T09:15:08.322Z,4.77
2022-11-27T09:16:13.254Z,4.83
2022-11-27T09:17:14.953Z,4.83
2022-11-27T09:18:16.523Z,4.84
2022-11-27T09:19:18.176Z,4.79
2022-11-27T09:20:20.191Z,4.76
2022-11-27T09:21:24.627Z,4.72
2022-11-27T09:22:26.194Z,4.71
2022-11-27T09:23:28.846Z,4.73
2022-11-27T09:24:30.865Z,4.78
2022-11-27T09:25:32.584Z,4.83
2022-11-27T09:26:34.218Z,4.78
2022-11-27T09:27:37.716Z,4.84
2022-11-27T09:28:40.607Z,4.83
2022-11-27T09:29:42.253Z,4.85
2022-11-27T09:30:44.148Z,4.87
2022-11-27T09:31:45.989Z,4.86
2022-11-27T09:32:47.590Z,4.84
2022-11-27T09:33:49.889Z,4.82
2022-11-27T09:34:52.236Z,4.84
2022-11-27T09:35:54.018Z,4.87
2022-11-27T09:36:55.600Z,4.95
2022-11-27T09:37:57.278Z,5.02
2022-11-27T09:38:59.611Z,5.02
2022-11-27T09:40:01.179Z,5.06
2022-11-27T09:41:11.702Z,5.10
2022-11-27T09:42:29.929Z,5.13
2022-11-27T09:43:36.666Z,5.10
2022-11-27T09:44:46.659Z,5.02
2022-11-27T09:45:55.819Z,5.00
2022-11-27T09:47:01.596Z,5.06
2022-11-27T09:48:07.355Z,5.12
2022-11-27T09:49:18.118Z,5.12
2022-11-27T09:50:25.017Z,5.20
2022-11-27T09:51:40.098Z,5.24
2022-11-27T09:52:46.291Z,5.23
2022-11-27T09:53:56.060Z,5.16
2022-11-27T09:55:03.098Z,5.23
2022-11-27T09:56:11.445Z,5.29
2022-11-27T09:57:20.808Z,5.35
2022-11-27T09:58:27.783Z,5.39
2022-11-27T09:59:49.123Z,5.39
2022-11-27T10:00:53.671Z,5.48
2022-11-27T10:01:55.597Z,5.50
2022-11-27T10:02:57.376Z,5.43
2022-11-27T10:04:01.236Z,5.56
2022-11-27T10:05:15.493Z,5.56
2022-11-27T10:06:39.251Z,5.55
2022-11-27T10:08:12.854Z,5.52
2022-11-27T10:09:22.813Z,5.42
2022-11-27T10:10:39.656Z,5.38
2022-11-27T10:12:15.347Z,5.45
2022-11-27T10:13:39.365Z,5.47
2022-11-27T10:14:56.928Z,5.46
2022-11-27T10:16:15.413Z,5.52
2022-11-27T10:17:17.112Z,5.55
2022-11-27T10:18:41.836Z,5.57
2022-11-27T10:20:01.450Z,5.63
2022-11-27T10:21:25.046Z,5.61
2022-11-27T10:22:54.870Z,5.60
2022-11-27T10:24:13.117Z,5.66
2022-11-27T10:25:28.743Z,5.61
2022-11-27T10:26:46.763Z,5.61
2022-11-27T10:28:00.776Z,5.60
2022-11-27T10:29:29.835Z,5.69
2022-11-27T10:30:37.400Z,5.52
2022-11-27T10:31:47.283Z,5.58
2022-11-27T10:32:55.683Z,5.56
2022-11-27T10:34:02.762Z,5.58
2022-11-27T10:35:12.939Z,5.58
2022-11-27T10:36:40.441Z,5.54
2022-11-27T10:37:48.099Z,5.49
2022-11-27T10:38:50.927Z,5.36
2022-11-27T10:40:08.427Z,5.21
2022-11-27T10:43:00.142Z,5.23
2022-11-27T10:44:18.299Z,5.27
2022-11-27T10:45:31.914Z,5.28
2022-11-27T10:46:39.354Z,5.41
2022-11-27T10:47:44.248Z,5.48
2022-11-27T10:48:46.777Z,5.65
2022-11-27T10:49:48.684Z,5.70
2022-11-27T10:50:50.920Z,5.80
2022-11-27T10:51:52.687Z,5.96
2022-11-27T10:53:01.703Z,6.05
2022-11-27T10:54:07.021Z,6.21
2022-11-27T10:55:21.870Z,6.30
2022-11-27T10:57:01.004Z,6.53
2022-11-27T10:58:35.847Z,6.55
2022-11-27T10:59:46.763Z,6.27
2022-11-27T11:00:48.539Z,6.26
2022-11-27T11:01:53.548Z,6.38
2022-11-27T11:03:04.098Z,6.54
2022-11-27T11:04:35.866Z,6.71
2022-11-27T11:06:12.164Z,6.79
2022-11-27T11:06:55.541Z,6.74
2022-11-27T11:07:58.702Z,6.78
2022-11-27T11:09:13.026Z,6.67
2022-11-27T11:10:44.828Z,6.43
2022-11-27T11:11:46.586Z,6.51
2022-11-27T11:12:48.302Z,6.50
2022-11-27T11:13:50.292Z,6.38
2022-11-27T11:14:53.640Z,6.19
2022-11-27T11:16:14.661Z,6.01
2022-11-27T11:17:17.993Z,6.19
2022-11-27T11:18:25.301Z,6.56
2022-11-27T11:19:30.023Z,6.77
2022-11-27T11:20:31.685Z,6.93
2022-11-27T11:21:35.041Z,6.98
2022-11-27T11:22:36.748Z,6.89
2022-11-27T11:23:40.959Z,7.04
2022-11-27T11:24:51.295Z,7.13
2022-11-27T11:25:57.086Z,7.16
2022-11-27T11:27:04.542Z,7.17
2022-11-27T11:28:06.217Z,7.19
2022-11-27T11:29:36.748Z,7.29
2022-11-27T11:30:39.621Z,7.26
2022-11-27T11:31:41.514Z,7.29
2022-11-27T11:32:44.998Z,7.35
2022-11-27T11:34:00.035Z,7.41
2022-11-27T11:35:09.822Z,7.52
2022-11-27T11:36:11.626Z,7.57
2022-11-27T11:37:34.503Z,7.35
2022-11-27T11:38:36.712Z,7.17
2022-11-27T11:39:44.712Z,7.36
2022-11-27T11:41:06.817Z,7.30
2022-11-27T11:42:11.125Z,7.22
2022-11-27T11:43:52.290Z,7.24
2022-11-27T11:45:17.329Z,7.22
2022-11-27T11:46:23.060Z,7.21
2022-11-27T11:47:25.337Z,7.36
2022-11-27T11:48:27.927Z,7.45
2022-11-27T11:49:33.278Z,7.44
2022-11-27T11:51:07.152Z,7.54
2022-11-27T11:52:23.827Z,7.51
2022-11-27T11:53:34.738Z,7.29
2022-11-27T11:54:52.899Z,7.16
2022-11-27T11:56:13.486Z,7.23
2022-11-27T11:57:51.982Z,7.34
2022-11-27T11:59:22.996Z,7.25
2022-11-27T12:00:48.728Z,7.43
2022-11-27T12:02:30.874Z,7.57
2022-11-27T12:03:58.499Z,7.65
2022-11-27T12:05:11.740Z,7.71
2022-11-27T12:06:25.630Z,7.76
2022-11-27T12:08:04.392Z,7.84
2022-11-27T12:09:15.346Z,7.80
2022-11-27T12:10:31.638Z,7.71
2022-11-27T12:11:47.103Z,7.55
2022-11-27T12:13:00.691Z,7.44
2022-11-27T12:14:07.744Z,7.31
2022-11-27T12:15:26.196Z,7.16
2022-11-27T12:16:52.612Z,7.01
2022-11-27T12:18:22.603Z,6.96
2022-11-27T12:19:33.180Z,6.93
2022-11-27T12:21:08.888Z,7.00
2022-11-27T12:22:13.783Z,6.97
2022-11-27T12:23:39.464Z,6.80
2022-11-27T12:25:17.655Z,6.73
2022-11-27T12:26:37.941Z,6.84
2022-11-27T12:28:16.254Z,7.07
2022-11-27T12:29:32.213Z,7.13
2022-11-27T12:30:52.112Z,7.26
2022-11-27T12:32:18.753Z,7.38
2022-11-27T12:33:38.443Z,7.44
2022-11-27T12:35:01.229Z,7.35
2022-11-27T12:36:16.190Z,7.28
2022-11-27T12:37:30.704Z,7.15
2022-11-27T12:38:53.760Z,7.07
2022-11-27T12:40:15.671Z,6.98
2022-11-27T12:41:29.589Z,6.97
2022-11-27T12:42:34.585Z,6.87
2022-11-27T12:43:41.558Z,6.70
2022-11-27T12:44:50.705Z,6.57
2022-11-27T12:46:43.315Z,6.68
2022-11-27T12:47:59.202Z,6.76
2022-11-27T12:49:09.904Z,6.97
2022-11-27T12:50:25.873Z,7.01
2022-11-27T12:51:31.789Z,6.94
2022-11-27T12:52:41.812Z,7.00
2022-11-27T12:53:50.313Z,7.05
2022-11-27T12:55:25.347Z,6.97
2022-11-27T12:56:30.050Z,6.78
2022-11-27T12:57:49.770Z,6.73
2022-11-27T12:58:57.449Z,6.76
2022-11-27T13:00:03.876Z,6.83
2022-11-27T13:01:15.789Z,6.85
2022-11-27T13:02:28.733Z,6.90
2022-11-27T13:03:45.692Z,6.91
2022-11-27T13:04:52.207Z,6.83
2022-11-27T13:06:00.188Z,6.72
2022-11-27T13:07:24.969Z,6.50
2022-11-27T13:08:35.002Z,6.48
2022-11-27T13:09:42.660Z,6.45
2022-11-27T13:10:55.344Z,6.42
2022-11-27T13:11:57.250Z,6.30
2022-11-27T13:13:06.950Z,6.26
2022-11-27T13:14:18.709Z,6.22
2022-11-27T13:15:35.965Z,6.21
2022-11-27T13:16:45.179Z,6.23
2022-11-27T13:17:53.998Z,6.15
2022-11-27T13:19:01.770Z,6.20
2022-11-27T13:20:04.982Z,6.31
2022-11-27T13:21:23.641Z,6.22
2022-11-27T13:22:35.131Z,6.19
2022-11-27T13:23:38.587Z,6.13
2022-11-27T13:24:41.233Z,6.09
2022-11-27T13:25:48.983Z,6.10
2022-11-27T13:27:07.459Z,5.98
2022-11-27T13:28:21.892Z,5.99
2022-11-27T13:29:38.292Z,5.96
2022-11-27T13:30:43.248Z,6.01
2022-11-27T13:31:56.348Z,5.98
2022-11-27T13:33:06.729Z,5.95
2022-11-27T13:34:20.158Z,5.98
2022-11-27T13:35:35.245Z,5.94
2022-11-27T13:36:45.535Z,6.07
2022-11-27T13:37:57.267Z,6.13
2022-11-27T13:39:01.344Z,6.21
2022-11-27T13:40:19.353Z,6.28
2022-11-27T13:41:24.850Z,6.35
2022-11-27T13:42:29.122Z,6.43
2022-11-27T13:43:45.448Z,6.43
2022-11-27T13:44:57.384Z,6.46
2022-11-27T13:46:10.054Z,6.56
2022-11-27T13:47:19.713Z,6.63
2022-11-27T13:48:36.063Z,6.60
2022-11-27T13:49:40.690Z,6.69
2022-11-27T13:50:49.423Z,6.75
2022-11-27T13:51:52.705Z,6.75
2022-11-27T13:53:04.312Z,6.69
2022-11-27T13:54:17.527Z,6.71
2022-11-27T13:55:29.055Z,6.75
2022-11-27T13:56:33.037Z,6.81
2022-11-27T13:57:36.631Z,6.91
2022-11-27T13:58:42.008Z,6.97
2022-11-27T14:00:03.529Z,7.01
2022-11-27T14:01:15.985Z,7.00
2022-11-27T14:02:18.251Z,7.05
2022-11-27T14:03:24.661Z,7.04
2022-11-27T14:04:30.972Z,7.07
2022-11-27T14:05:38.984Z,7.09
2022-11-27T14:06:43.699Z,7.09
2022-11-27T14:07:53.511Z,7.10
2022-11-27T14:09:02.100Z,7.04
2022-11-27T14:10:15.789Z,7.00
2022-11-27T14:11:35.782Z,6.93
2022-11-27T14:12:40.415Z,6.80
2022-11-27T14:13:52.934Z,6.73
2022-11-27T14:15:17.566Z,6.79
2022-11-27T14:16:28.076Z,6.69
2022-11-27T14:17:46.977Z,6.62
2022-11-27T14:18:52.457Z,6.54
2022-11-27T14:20:06.707Z,6.45
2022-11-27T14:21:09.316Z,6.42
2022-11-27T14:23:10.479Z,6.33
2022-11-27T14:24:34.763Z,6.17
2022-11-27T14:25:36.994Z,6.18
2022-11-27T14:26:41.429Z,6.23
2022-11-27T14:27:43.652Z,6.24
2022-11-27T14:28:59.621Z,6.21
2022-11-27T14:30:22.584Z,6.26
2022-11-27T14:31:35.926Z,6.28
2022-11-27T14:32:38.277Z,6.31
2022-11-27T14:34:07.480Z,6.32
2022-11-27T14:35:19.904Z,6.27
2022-11-27T14:36:24.913Z,6.27
2022-11-27T14:37:28.460Z,6.26
2022-11-27T14:38:32.599Z,6.21
2022-11-27T14:39:37.400Z,6.27
2022-11-27T14:40:39.359Z,6.30
2022-11-27T14:41:41.037Z,6.28
2022-11-27T14:42:42.601Z,6.26
2022-11-27T14:43:44.281Z,6.16
2022-11-27T14:44:45.959Z,6.15
2022-11-27T14:45:52.007Z,6.11
2022-11-27T14:46:54.566Z,6.02
2022-11-27T14:47:56.317Z,6.06
2022-11-27T14:48:58.338Z,6.01
2022-11-27T14:50:00.737Z,5.97
2022-11-27T14:51:03.165Z,6.05
2022-11-27T14:52:13.586Z,6.03